Nasa Shuttle, FL

7:13 AM EDT on April 27, 2015 (GMT -0400)
RAWS | | Change Station
CLOSE
Current Station
Personal Weather Station
Location: Kennedy Space Center, FL
Elevation: 29 ft
Nearby Weather Stations

Elev 29 ft 28.64 °N, 80.73 °W | Updated 58 minutes ago

Mostly Cloudy
Mostly Cloudy
78 °F
Feels Like 80 °F
N
2
Wind Variable Wind from West
Gusts 5.0 mph

Today
High -- | Low -- °F
--% Chance of Precip.
Yesterday
High -- | Low -- °F
Precip. -- in
6:45 AM 7:55 PM
Waxing Gibbous, 64% visible
Pressure 29.75 in
Visibility 10.0 miles
Clouds Few 12000 ft
Scattered Clouds 15000 ft
Scattered Clouds 19000 ft
Mostly Cloudy 21000 ft
Heat Index 80 °F
Dew Point 74 °F
Humidity 89%
Rainfall in
Snow Depth Not available.
UV 0 out of 12
Pollen 9.50 out of 12
Air Quality Not available.
Flu Activity Local Activity
METAR KTTS 271058Z AUTO 28009KT 10SM FEW120 SCT150 SCT190 BKN210 26/22 A2974 RMK AO2 SLP075 T02550223

More Conditions Fewer Conditions

Pressure 29.75 in
Visibility 10.0 miles
Clouds Few 12000 ft
Scattered Clouds 15000 ft
Scattered Clouds 19000 ft
Mostly Cloudy 21000 ft
Heat Index 80 °F
Dew Point 74 °F
Humidity 89%
Rainfall in
Snow Depth Not available.
UV 0 out of 12
Pollen 9.50 out of 12
Air Quality Not available.
Flu Activity Local Activity
METAR KTTS 271058Z AUTO 28009KT 10SM FEW120 SCT150 SCT190 BKN210 26/22 A2974 RMK AO2 SLP075 T02550223

More Conditions Fewer Conditions

Nowcast | as of 6:08 am EDT on April 27, 2015

Through mid morning...scattered showers will occur along the I-4 corridor. Any rainfall amounts will be fairly light as activity moves west to east across the area. Additional details...including graphics are available online at: http://www.Srh.NOAA.Gov/mlb/blog.Php

×

10-Day Weather Forecast

Almanac

Astronomy

Apr. 27, 2015 Rise Set
Actual Time
Civil Twilight
Nautical Twilight
Astronomical Twilight
Moon
Length of Visible Light
Length of Day
Tomorrow will be .
, % of the Moon is Illuminated

Today's Extremes

State Highs State Lows

Community

WunderPhotos

Upload Photos

1,817,282 photos uploaded!

WunderBlogs® & News

Nearby

Air Quality

  Air Quality AQ Index Pollutant
Not available.

Snow Depth

Station Depth Elevation

Earthquake Activity

City Distance Mag. Time & Date
Minimum magnitude displayed is 2.5.

Coastal Water Temperatures

Place Temperature

Stations

Nearby Weather Stations

Station Location Temp. Windchill Dew Point Humidity Wind Precip. Elev Updated Type